createdAt,value
2023-09-23T00:00:19.667Z,19.43
2023-09-23T00:01:22.975Z,19.40
2023-09-23T00:02:24.954Z,19.36
2023-09-23T00:03:27.943Z,19.30
2023-09-23T00:04:30.806Z,19.25
2023-09-23T00:05:37.050Z,19.21
2023-09-23T00:06:39.119Z,19.17
2023-09-23T00:07:44.119Z,19.16
2023-09-23T00:08:46.258Z,19.12
2023-09-23T00:09:49.499Z,19.06
2023-09-23T00:10:52.284Z,19.02
2023-09-23T00:11:56.546Z,18.99
2023-09-23T00:12:58.438Z,18.96
2023-09-23T00:14:02.238Z,18.93
2023-09-23T00:15:06.660Z,18.89
2023-09-23T00:16:10.737Z,18.88
2023-09-23T00:18:18.690Z,18.83
2023-09-23T00:19:21.080Z,18.80
2023-09-23T00:20:24.129Z,18.77
2023-09-23T00:21:26.217Z,18.75
2023-09-23T00:22:29.029Z,18.73
2023-09-23T00:23:32.190Z,18.72
2023-09-23T00:24:35.143Z,18.72
2023-09-23T00:25:37.073Z,18.71
2023-09-23T00:26:39.869Z,18.72
2023-09-23T00:27:43.198Z,18.71
2023-09-23T00:28:47.872Z,18.71
2023-09-23T00:29:50.374Z,18.72
2023-09-23T00:30:52.368Z,18.72
2023-09-23T00:31:57.004Z,18.70
2023-09-23T00:33:01.966Z,18.70
2023-09-23T00:34:06.085Z,18.69
2023-09-23T00:35:11.518Z,18.69
2023-09-23T00:36:15.198Z,18.68
2023-09-23T00:37:17.019Z,18.66
2023-09-23T00:38:21.141Z,18.65
2023-09-23T00:39:23.122Z,18.59
2023-09-23T00:40:30.766Z,18.53
2023-09-23T00:41:32.637Z,18.45
2023-09-23T00:42:35.790Z,18.39
2023-09-23T00:43:39.161Z,18.31
2023-09-23T00:44:41.132Z,18.24
2023-09-23T00:45:47.409Z,18.17
2023-09-23T00:46:49.259Z,18.11
2023-09-23T00:47:53.249Z,18.05
2023-09-23T00:48:56.195Z,17.99
2023-09-23T00:49:59.040Z,17.95
2023-09-23T00:51:01.155Z,17.89
2023-09-23T00:52:06.900Z,17.86
2023-09-23T00:53:09.372Z,17.83
2023-09-23T00:54:15.056Z,17.80
2023-09-23T00:55:17.411Z,17.76
2023-09-23T00:56:24.394Z,17.71
2023-09-23T00:57:26.572Z,17.68
2023-09-23T00:58:29.598Z,17.62
2023-09-23T00:59:36.250Z,17.56
2023-09-23T01:00:44.915Z,17.49
2023-09-23T01:01:50.072Z,17.45
2023-09-23T01:02:56.968Z,17.38
2023-09-23T01:03:59.449Z,17.33
2023-09-23T01:05:02.438Z,17.31
2023-09-23T01:06:06.136Z,17.28
2023-09-23T01:07:10.671Z,17.25
2023-09-23T01:08:13.071Z,17.20
2023-09-23T01:09:22.242Z,17.17
2023-09-23T01:10:24.849Z,17.15
2023-09-23T01:11:28.656Z,17.11
2023-09-23T01:12:31.500Z,17.11
2023-09-23T01:13:33.370Z,17.09
2023-09-23T01:14:37.504Z,17.08
2023-09-23T01:15:41.439Z,17.06
2023-09-23T01:16:44.844Z,17.03
2023-09-23T01:17:49.120Z,17.01
2023-09-23T01:18:52.263Z,17.00
2023-09-23T01:19:54.458Z,16.98
2023-09-23T01:20:59.801Z,16.96
2023-09-23T01:22:02.840Z,16.93
2023-09-23T01:23:06.463Z,16.90
2023-09-23T01:24:09.933Z,16.87
2023-09-23T01:25:11.861Z,16.85
2023-09-23T01:26:14.757Z,16.84
2023-09-23T01:27:19.385Z,16.84
2023-09-23T01:28:22.253Z,16.82
2023-09-23T01:29:24.669Z,16.83
2023-09-23T01:30:28.084Z,16.83
2023-09-23T01:31:30.659Z,16.81
2023-09-23T01:32:41.515Z,16.78
2023-09-23T01:33:43.568Z,16.73
2023-09-23T01:34:46.603Z,16.69
2023-09-23T01:35:49.659Z,16.66
2023-09-23T01:38:38.362Z,16.55
2023-09-23T01:39:42.546Z,16.53
2023-09-23T01:40:45.528Z,16.50
2023-09-23T01:41:47.442Z,16.52
2023-09-23T01:42:52.459Z,16.52
2023-09-23T01:43:55.333Z,16.51
2023-09-23T01:44:59.139Z,16.51
2023-09-23T01:46:05.243Z,16.52
2023-09-23T01:47:08.477Z,16.52
2023-09-23T01:48:10.428Z,16.49
2023-09-23T01:49:13.345Z,16.48
2023-09-23T01:50:15.382Z,16.46
2023-09-23T01:51:18.745Z,16.42
2023-09-23T01:52:20.982Z,16.40
2023-09-23T01:53:25.358Z,16.39
2023-09-23T01:54:28.522Z,16.35
2023-09-23T01:55:31.643Z,16.31
2023-09-23T01:56:35.208Z,16.24
2023-09-23T01:57:38.396Z,16.19
2023-09-23T01:58:40.307Z,16.14
2023-09-23T01:59:43.396Z,16.10
2023-09-23T02:00:45.535Z,16.08
2023-09-23T02:01:50.091Z,16.08
2023-09-23T02:02:55.173Z,16.07
2023-09-23T02:03:58.961Z,16.09
2023-09-23T02:05:01.056Z,16.10
2023-09-23T02:06:04.044Z,16.09
2023-09-23T02:07:06.524Z,16.09
2023-09-23T02:08:09.436Z,16.09
2023-09-23T02:09:11.439Z,16.08
2023-09-23T02:10:16.569Z,16.06
2023-09-23T02:11:19.447Z,16.06
2023-09-23T02:12:22.279Z,16.04
2023-09-23T02:13:24.162Z,16.03
2023-09-23T02:14:27.001Z,16.02
2023-09-23T02:15:29.596Z,16.03
2023-09-23T02:16:32.460Z,16.03
2023-09-23T02:17:37.410Z,16.02
2023-09-23T02:18:40.909Z,16.01
2023-09-23T02:19:43.542Z,16.00
2023-09-23T02:20:46.455Z,15.98
2023-09-23T02:21:49.003Z,15.95
2023-09-23T02:22:54.304Z,15.92
2023-09-23T02:23:57.119Z,15.92
2023-09-23T02:24:59.922Z,15.90
2023-09-23T02:26:03.178Z,15.89
2023-09-23T02:27:06.138Z,15.89
2023-09-23T02:28:09.021Z,15.90
2023-09-23T02:29:11.922Z,15.89
2023-09-23T02:30:14.499Z,15.89
2023-09-23T02:31:17.454Z,15.87
2023-09-23T02:32:19.430Z,15.86
2023-09-23T02:33:22.815Z,15.85
2023-09-23T02:34:24.762Z,15.86
2023-09-23T02:35:27.604Z,15.86
2023-09-23T02:36:29.707Z,15.87
2023-09-23T02:37:32.538Z,15.86
2023-09-23T02:38:34.378Z,15.85
2023-09-23T02:39:37.201Z,15.84
2023-09-23T02:40:41.513Z,15.84
2023-09-23T02:41:47.317Z,15.83
2023-09-23T02:42:52.859Z,15.83
2023-09-23T02:43:56.732Z,15.84
2023-09-23T02:44:59.453Z,15.85
2023-09-23T02:46:02.845Z,15.87
2023-09-23T02:47:05.488Z,15.87
2023-09-23T02:48:09.779Z,15.88
2023-09-23T02:49:14.212Z,15.87
2023-09-23T02:50:18.859Z,15.86
2023-09-23T02:51:20.956Z,15.85
2023-09-23T02:52:23.775Z,15.83
2023-09-23T02:53:25.621Z,15.82
2023-09-23T02:54:28.608Z,15.82
2023-09-23T02:55:30.459Z,15.82
2023-09-23T02:56:33.566Z,15.81
2023-09-23T02:57:37.891Z,15.78
2023-09-23T02:58:41.366Z,15.73
2023-09-23T02:59:45.852Z,15.74
2023-09-23T03:00:58.080Z,15.72
2023-09-23T03:02:02.082Z,15.69
2023-09-23T03:03:10.256Z,15.67
2023-09-23T03:04:18.355Z,15.68
2023-09-23T03:05:26.386Z,15.65
2023-09-23T03:06:31.341Z,15.63
2023-09-23T03:07:36.134Z,15.64
2023-09-23T03:08:39.478Z,15.64
2023-09-23T03:09:48.728Z,15.65
2023-09-23T03:10:53.270Z,15.66
2023-09-23T03:11:57.037Z,15.66
2023-09-23T03:13:06.794Z,15.67
2023-09-23T03:14:13.347Z,15.65
2023-09-23T03:15:15.750Z,15.64
2023-09-23T03:16:29.245Z,15.64
2023-09-23T03:17:32.387Z,15.64
2023-09-23T03:18:37.822Z,15.64
2023-09-23T03:19:39.768Z,15.65
2023-09-23T03:20:43.108Z,15.65
2023-09-23T03:21:46.536Z,15.66
2023-09-23T03:22:50.644Z,15.66
2023-09-23T03:23:54.243Z,15.64
2023-09-23T03:24:58.122Z,15.61
2023-09-23T03:26:01.537Z,15.58
2023-09-23T03:27:04.551Z,15.55
2023-09-23T03:28:07.819Z,15.54
2023-09-23T03:29:10.793Z,15.55
2023-09-23T03:30:13.892Z,15.54
2023-09-23T03:31:18.710Z,15.52
2023-09-23T03:32:25.231Z,15.51
2023-09-23T03:33:28.752Z,15.49
2023-09-23T03:34:33.494Z,15.47
2023-09-23T03:35:37.299Z,15.46
2023-09-23T03:36:40.093Z,15.44
2023-09-23T03:37:42.981Z,15.43
2023-09-23T03:38:45.309Z,15.42
2023-09-23T03:39:48.427Z,15.41
2023-09-23T03:40:52.410Z,15.39
2023-09-23T03:41:57.644Z,15.38
2023-09-23T03:43:02.220Z,15.35
2023-09-23T03:44:08.535Z,15.36
2023-09-23T03:45:11.387Z,15.34
2023-09-23T03:46:15.995Z,15.33
2023-09-23T03:47:18.237Z,15.32
2023-09-23T03:48:21.568Z,15.33
2023-09-23T03:49:23.582Z,15.33
2023-09-23T03:50:26.950Z,15.35
2023-09-23T03:51:29.186Z,15.36
2023-09-23T03:52:32.193Z,15.37
2023-09-23T03:53:34.183Z,15.40
2023-09-23T03:54:37.262Z,15.40
2023-09-23T03:55:40.294Z,15.44
2023-09-23T03:56:43.241Z,15.48
2023-09-23T03:57:45.702Z,15.48
2023-09-23T03:58:48.810Z,15.49
2023-09-23T03:59:52.318Z,15.50
2023-09-23T04:00:57.097Z,15.50
2023-09-23T04:01:59.105Z,15.52
2023-09-23T04:03:02.245Z,15.53
2023-09-23T04:04:04.524Z,15.51
2023-09-23T04:05:08.122Z,15.53
2023-09-23T04:06:10.074Z,15.54
2023-09-23T04:07:15.420Z,15.53
2023-09-23T04:08:17.275Z,15.53
2023-09-23T04:09:20.115Z,15.52
2023-09-23T04:10:24.747Z,15.52
2023-09-23T04:11:27.822Z,15.51
2023-09-23T04:12:29.749Z,15.50
2023-09-23T04:13:32.939Z,15.52
2023-09-23T04:14:35.280Z,15.51
2023-09-23T04:15:38.550Z,15.50
2023-09-23T04:16:41.349Z,15.50
2023-09-23T04:17:43.242Z,15.50
2023-09-23T04:18:47.390Z,15.50
2023-09-23T04:19:50.046Z,15.51
2023-09-23T04:20:54.563Z,15.50
2023-09-23T04:21:57.275Z,15.49
2023-09-23T04:23:00.356Z,15.48
2023-09-23T04:24:02.521Z,15.47
2023-09-23T04:25:07.118Z,15.47
2023-09-23T04:26:09.604Z,15.45
2023-09-23T04:27:12.715Z,15.44
2023-09-23T04:28:14.881Z,15.43
2023-09-23T04:29:21.044Z,15.43
2023-09-23T04:30:23.387Z,15.41
2023-09-23T04:31:27.581Z,15.41
2023-09-23T04:32:29.788Z,15.42
2023-09-23T04:33:32.909Z,15.41
2023-09-23T04:34:37.155Z,15.41
2023-09-23T04:35:39.109Z,15.40
2023-09-23T04:36:41.877Z,15.40
2023-09-23T04:37:43.850Z,15.41
2023-09-23T04:38:46.760Z,15.42
2023-09-23T04:39:48.735Z,15.41
2023-09-23T04:40:50.774Z,15.42
2023-09-23T04:41:53.597Z,15.44
2023-09-23T04:42:55.428Z,15.44
2023-09-23T04:43:58.578Z,15.44
2023-09-23T04:45:00.412Z,15.45
2023-09-23T04:46:03.451Z,15.45
2023-09-23T04:47:07.221Z,15.47
2023-09-23T04:48:11.169Z,15.47
2023-09-23T04:49:13.072Z,15.48
2023-09-23T04:50:18.004Z,15.49
2023-09-23T04:51:19.838Z,15.50
2023-09-23T04:52:22.687Z,15.52
2023-09-23T04:53:24.781Z,15.53
2023-09-23T04:54:27.600Z,15.56
2023-09-23T04:55:29.620Z,15.56
2023-09-23T04:56:32.451Z,15.58
2023-09-23T04:57:34.854Z,15.58
2023-09-23T04:58:37.654Z,15.59
2023-09-23T04:59:39.828Z,15.60
2023-09-23T05:00:42.629Z,15.57
2023-09-23T05:01:45.075Z,15.57
2023-09-23T05:02:51.465Z,15.55
2023-09-23T05:03:53.718Z,15.55
2023-09-23T05:04:55.738Z,15.52
2023-09-23T05:05:58.718Z,15.52
2023-09-23T05:07:01.880Z,15.53
2023-09-23T05:08:06.304Z,15.53
2023-09-23T05:09:09.600Z,15.54
2023-09-23T05:10:12.816Z,15.53
2023-09-23T05:11:14.775Z,15.52
2023-09-23T05:12:17.628Z,15.51
2023-09-23T05:13:19.484Z,15.50
2023-09-23T05:14:22.379Z,15.49
2023-09-23T05:15:25.584Z,15.50
2023-09-23T05:16:29.564Z,15.51
2023-09-23T05:17:31.848Z,15.51
2023-09-23T05:18:37.132Z,15.49
2023-09-23T05:19:43.457Z,15.49
2023-09-23T05:20:48.872Z,15.50
2023-09-23T05:21:51.234Z,15.49
2023-09-23T05:22:54.135Z,15.49
2023-09-23T05:23:57.380Z,15.48
2023-09-23T05:25:00.227Z,15.43
2023-09-23T05:26:02.078Z,15.40
2023-09-23T05:27:05.500Z,15.38
2023-09-23T05:28:09.997Z,15.37
2023-09-23T05:29:13.205Z,15.37
2023-09-23T05:30:15.592Z,15.36
2023-09-23T05:31:18.899Z,15.31
2023-09-23T05:32:21.741Z,15.24
2023-09-23T05:33:24.779Z,15.17
2023-09-23T05:34:28.413Z,15.07
2023-09-23T05:35:31.228Z,14.99
2023-09-23T05:36:33.852Z,14.91
2023-09-23T05:37:36.821Z,14.86
2023-09-23T05:38:38.707Z,14.81
2023-09-23T05:39:46.752Z,14.77
2023-09-23T05:40:48.817Z,14.74
2023-09-23T05:41:52.502Z,14.72
2023-09-23T05:42:54.468Z,14.69
2023-09-23T05:43:57.365Z,14.65
2023-09-23T05:44:59.180Z,14.62
2023-09-23T05:46:05.599Z,14.61
2023-09-23T05:47:07.632Z,14.60
2023-09-23T05:48:10.988Z,14.61
2023-09-23T05:49:13.205Z,14.63
2023-09-23T05:50:19.070Z,14.61
2023-09-23T05:51:21.034Z,14.59
2023-09-23T05:52:23.849Z,14.58
2023-09-23T05:53:25.753Z,14.55
2023-09-23T05:54:28.553Z,14.52
2023-09-23T05:55:32.225Z,14.52
2023-09-23T05:56:35.078Z,14.52
2023-09-23T05:57:39.526Z,14.52
2023-09-23T05:58:42.339Z,14.53
2023-09-23T05:59:44.208Z,14.51
2023-09-23T06:00:49.025Z,14.52
2023-09-23T06:01:50.908Z,14.51
2023-09-23T06:02:53.883Z,14.51
2023-09-23T06:03:56.997Z,14.51
2023-09-23T06:05:02.258Z,14.50
2023-09-23T06:06:06.696Z,14.51
2023-09-23T06:07:08.602Z,14.51
2023-09-23T06:08:11.557Z,14.53
2023-09-23T06:09:13.420Z,14.54
2023-09-23T06:10:16.431Z,14.55
2023-09-23T06:11:18.411Z,14.56
2023-09-23T06:12:21.259Z,14.57
2023-09-23T06:13:23.219Z,14.56
2023-09-23T06:14:26.511Z,14.54
2023-09-23T06:15:29.589Z,14.54
2023-09-23T06:16:32.460Z,14.53
2023-09-23T06:17:34.370Z,14.52
2023-09-23T06:18:37.362Z,14.52
2023-09-23T06:19:39.239Z,14.52
2023-09-23T06:20:42.024Z,14.50
2023-09-23T06:21:45.249Z,14.47
2023-09-23T06:22:49.175Z,14.46
2023-09-23T06:23:51.635Z,14.44
2023-09-23T06:24:55.193Z,14.44
2023-09-23T06:25:57.258Z,14.44
2023-09-23T06:27:00.078Z,14.44
2023-09-23T06:28:02.008Z,14.42
2023-09-23T06:29:05.696Z,14.41
2023-09-23T06:30:08.622Z,14.41
2023-09-23T06:31:13.455Z,14.40
2023-09-23T06:32:15.289Z,14.40
2023-09-23T06:33:18.119Z,14.39
2023-09-23T06:34:20.075Z,14.38
2023-09-23T06:35:22.913Z,14.39
2023-09-23T06:36:24.731Z,14.39
2023-09-23T06:37:28.924Z,14.41
2023-09-23T06:38:30.886Z,14.40
2023-09-23T06:39:33.788Z,14.39
2023-09-23T06:40:35.637Z,14.39
2023-09-23T06:41:38.410Z,14.38
2023-09-23T06:42:40.793Z,14.40
2023-09-23T06:43:43.784Z,14.39
2023-09-23T06:44:46.413Z,14.40
2023-09-23T06:45:55.170Z,14.41
2023-09-23T06:46:57.102Z,14.41
2023-09-23T06:48:00.135Z,14.42
2023-09-23T06:49:02.302Z,14.45
2023-09-23T06:50:06.147Z,14.48
2023-09-23T06:51:07.984Z,14.52
2023-09-23T06:52:10.813Z,14.57
2023-09-23T06:53:14.088Z,14.61
2023-09-23T06:54:15.955Z,14.65
2023-09-23T06:55:19.049Z,14.68
2023-09-23T06:56:20.945Z,14.72
2023-09-23T06:57:23.775Z,14.74
2023-09-23T06:58:25.630Z,14.75
2023-09-23T06:59:28.574Z,14.75
2023-09-23T07:00:30.503Z,14.73
2023-09-23T07:01:34.498Z,14.72
2023-09-23T07:02:36.597Z,14.71
2023-09-23T07:03:39.530Z,14.72
2023-09-23T07:04:41.625Z,14.70
2023-09-23T07:05:44.691Z,14.70
2023-09-23T07:06:47.254Z,14.70
2023-09-23T07:07:50.330Z,14.68
2023-09-23T07:08:53.550Z,14.68
2023-09-23T07:09:56.473Z,14.69
2023-09-23T07:10:58.405Z,14.71
2023-09-23T07:12:01.253Z,14.71
2023-09-23T07:13:05.092Z,14.73
2023-09-23T07:14:08.009Z,14.76
2023-09-23T07:15:10.706Z,14.79
2023-09-23T07:16:15.237Z,14.82
2023-09-23T07:17:18.935Z,14.84
2023-09-23T07:18:21.853Z,14.85
2023-09-23T07:19:23.697Z,14.86
2023-09-23T07:20:26.689Z,14.88
2023-09-23T07:21:28.708Z,14.92
2023-09-23T07:22:31.482Z,14.94
2023-09-23T07:23:34.084Z,14.95
2023-09-23T07:24:39.721Z,14.95
2023-09-23T07:25:43.307Z,14.97
2023-09-23T07:26:46.124Z,14.97
2023-09-23T07:27:48.218Z,14.99
2023-09-23T07:28:51.590Z,14.96
2023-09-23T07:29:53.534Z,14.96
2023-09-23T07:30:57.248Z,14.93
2023-09-23T07:31:59.352Z,14.95
2023-09-23T07:33:02.514Z,14.97
2023-09-23T07:34:04.459Z,14.97
2023-09-23T07:35:08.752Z,14.97
2023-09-23T07:36:11.653Z,14.95
2023-09-23T07:37:15.296Z,15.00
2023-09-23T07:38:17.188Z,15.01
2023-09-23T07:39:19.987Z,15.04
2023-09-23T07:40:23.235Z,15.07
2023-09-23T07:41:26.114Z,15.10
2023-09-23T07:42:27.996Z,15.16
2023-09-23T07:43:30.861Z,15.17
2023-09-23T07:44:32.719Z,15.20
2023-09-23T07:45:35.613Z,15.20
2023-09-23T07:46:38.145Z,15.21
2023-09-23T07:47:41.094Z,15.18
2023-09-23T07:48:42.985Z,15.26
2023-09-23T07:49:46.040Z,15.28
2023-09-23T07:50:48.028Z,15.28
2023-09-23T07:51:50.826Z,15.27
2023-09-23T07:52:53.081Z,15.27
2023-09-23T07:53:55.905Z,15.26
2023-09-23T07:54:57.710Z,15.25
2023-09-23T07:56:01.870Z,15.20
2023-09-23T07:57:03.799Z,15.18
2023-09-23T07:58:07.318Z,15.14
2023-09-23T07:59:09.602Z,15.15
2023-09-23T08:00:13.428Z,15.15
2023-09-23T08:01:15.303Z,15.14
2023-09-23T08:02:18.162Z,15.11
2023-09-23T08:03:20.071Z,15.10
2023-09-23T08:04:22.944Z,15.08
2023-09-23T08:05:25.390Z,15.06
2023-09-23T08:06:28.499Z,15.04
2023-09-23T08:07:30.637Z,15.02
2023-09-23T08:08:33.577Z,14.99
2023-09-23T08:09:35.474Z,14.98
2023-09-23T08:10:38.297Z,14.96
2023-09-23T08:11:41.501Z,14.95
2023-09-23T08:12:44.302Z,14.94
2023-09-23T08:13:46.348Z,14.95
2023-09-23T08:14:49.290Z,14.96
2023-09-23T08:15:51.200Z,14.98
2023-09-23T08:16:54.090Z,14.96
2023-09-23T08:17:56.033Z,14.91
2023-09-23T08:18:58.854Z,14.91
2023-09-23T08:20:00.887Z,14.89
2023-09-23T08:21:03.884Z,14.89
2023-09-23T08:22:05.813Z,14.91
2023-09-23T08:23:09.802Z,14.93
2023-09-23T08:24:11.692Z,14.92
2023-09-23T08:25:14.720Z,14.93
2023-09-23T08:26:16.862Z,14.96
2023-09-23T08:27:21.377Z,15.01
2023-09-23T08:28:24.055Z,15.05
2023-09-23T08:29:27.201Z,15.10
2023-09-23T08:30:29.210Z,15.15
2023-09-23T08:31:32.542Z,15.17
2023-09-23T08:32:34.497Z,15.16
2023-09-23T08:33:37.844Z,15.18
2023-09-23T08:34:39.715Z,15.19
2023-09-23T08:35:43.629Z,15.19
2023-09-23T08:36:45.483Z,15.18
2023-09-23T08:37:48.336Z,15.16
2023-09-23T08:38:50.172Z,15.15
2023-09-23T08:39:53.412Z,15.13
2023-09-23T08:40:55.358Z,15.10
2023-09-23T08:41:59.207Z,15.08
2023-09-23T08:43:05.455Z,15.08
2023-09-23T08:44:08.648Z,15.08
2023-09-23T08:45:11.076Z,15.07
2023-09-23T08:46:13.276Z,15.09
2023-09-23T08:47:16.321Z,15.10
2023-09-23T08:48:18.565Z,15.08
2023-09-23T08:49:23.032Z,15.10
2023-09-23T08:50:25.315Z,15.11
2023-09-23T08:51:28.641Z,15.11
2023-09-23T08:52:31.833Z,15.14
2023-09-23T08:53:34.583Z,15.15
2023-09-23T08:54:37.606Z,15.19
2023-09-23T08:55:39.556Z,15.20
2023-09-23T08:56:42.333Z,15.20
2023-09-23T08:57:44.301Z,15.25
2023-09-23T08:58:50.168Z,15.32
2023-09-23T08:59:52.332Z,15.38
2023-09-23T09:00:55.562Z,15.47
2023-09-23T09:01:57.691Z,15.49
2023-09-23T09:03:00.532Z,15.53
2023-09-23T09:04:02.361Z,15.58
2023-09-23T09:05:06.033Z,15.59
2023-09-23T09:06:16.390Z,15.61
2023-09-23T09:07:19.178Z,15.60
2023-09-23T09:08:21.051Z,15.55
2023-09-23T09:09:24.703Z,15.52
2023-09-23T09:10:26.831Z,15.46
2023-09-23T09:11:29.790Z,15.44
2023-09-23T09:12:32.480Z,15.42
2023-09-23T09:13:36.653Z,15.39
2023-09-23T09:14:40.042Z,15.41
2023-09-23T09:15:42.864Z,15.41
2023-09-23T09:16:45.044Z,15.41
2023-09-23T09:17:47.941Z,15.42
2023-09-23T10:00:26.233Z,15.54
2023-09-23T10:01:29.831Z,15.56
2023-09-23T10:02:34.108Z,15.60
2023-09-23T10:03:37.877Z,15.65
2023-09-23T10:04:47.407Z,15.71
2023-09-23T10:05:51.584Z,15.73
2023-09-23T10:06:56.530Z,15.76
2023-09-23T10:08:21.187Z,15.75
2023-09-23T10:09:28.358Z,15.74
2023-09-23T10:10:33.809Z,15.75
2023-09-23T10:11:36.842Z,15.76
2023-09-23T10:12:38.705Z,15.78
2023-09-23T10:13:41.541Z,15.81
2023-09-23T10:14:53.573Z,15.84
2023-09-23T10:16:06.103Z,15.84
2023-09-23T10:17:09.270Z,15.84
2023-09-23T10:18:13.390Z,15.83
2023-09-23T10:19:16.800Z,15.84
2023-09-23T10:20:20.479Z,15.83
2023-09-23T10:21:23.273Z,15.85
2023-09-23T10:22:26.422Z,15.83
2023-09-23T10:23:28.403Z,15.83
2023-09-23T10:24:34.561Z,15.82
2023-09-23T10:25:40.880Z,15.83
2023-09-23T10:26:45.304Z,15.82
2023-09-23T10:27:57.611Z,15.85
2023-09-23T10:29:01.343Z,15.85
2023-09-23T10:30:05.471Z,15.87
2023-09-23T10:31:10.792Z,15.88
2023-09-23T10:32:15.440Z,15.88
2023-09-23T10:33:19.063Z,15.88
2023-09-23T10:34:20.988Z,15.88
2023-09-23T10:35:24.967Z,15.89
2023-09-23T10:36:27.522Z,15.88
2023-09-23T10:37:30.760Z,15.89
2023-09-23T10:38:38.916Z,15.87
2023-09-23T10:39:44.601Z,15.84
2023-09-23T10:40:51.529Z,15.79
2023-09-23T10:41:53.357Z,15.75
2023-09-23T10:42:55.167Z,15.74
2023-09-23T10:43:57.964Z,15.76
2023-09-23T10:45:00.433Z,15.77
2023-09-23T10:46:03.836Z,15.79
2023-09-23T10:47:07.156Z,15.81
2023-09-23T10:48:10.195Z,15.82
2023-09-23T10:49:12.151Z,15.81
2023-09-23T10:50:15.327Z,15.80
2023-09-23T10:51:17.239Z,15.79
2023-09-23T10:52:20.282Z,15.76
2023-09-23T10:53:22.754Z,15.75
2023-09-23T10:54:26.170Z,15.74
2023-09-23T10:55:27.994Z,15.75
2023-09-23T10:56:31.195Z,15.75
2023-09-23T10:57:33.069Z,15.74
2023-09-23T10:58:37.435Z,15.73
2023-09-23T10:59:39.502Z,15.72
2023-09-23T11:00:43.413Z,15.68
2023-09-23T11:01:46.658Z,15.67
2023-09-23T11:02:54.323Z,15.63
2023-09-23T11:03:56.493Z,15.60
2023-09-23T11:04:59.357Z,15.58
2023-09-23T11:06:01.184Z,15.56
2023-09-23T11:07:04.765Z,15.56
2023-09-23T11:08:07.114Z,15.57
2023-09-23T11:09:09.001Z,15.57
2023-09-23T11:10:15.374Z,15.58
2023-09-23T11:11:18.507Z,15.55
2023-09-23T11:12:21.334Z,15.51
2023-09-23T11:13:23.174Z,15.46
2023-09-23T11:14:28.855Z,15.44
2023-09-23T11:15:31.697Z,15.41
2023-09-23T11:16:34.723Z,15.39
2023-09-23T11:17:36.744Z,15.37
2023-09-23T11:18:40.998Z,15.37
2023-09-23T11:19:52.919Z,15.37
2023-09-23T11:20:55.723Z,15.36
2023-09-23T11:21:57.843Z,15.36
2023-09-23T11:23:03.432Z,15.36
2023-09-23T11:24:06.046Z,15.37
2023-09-23T11:25:11.243Z,15.40
2023-09-23T11:26:13.126Z,15.45
2023-09-23T11:27:15.947Z,15.49
2023-09-23T11:28:18.795Z,15.51
2023-09-23T11:29:22.798Z,15.54
2023-09-23T11:30:24.959Z,15.56
2023-09-23T11:31:27.799Z,15.57
2023-09-23T11:32:29.789Z,15.58
2023-09-23T11:33:32.682Z,15.59
2023-09-23T11:34:37.646Z,15.61
2023-09-23T11:35:40.582Z,15.61
2023-09-23T11:36:42.499Z,15.62
2023-09-23T11:37:47.968Z,15.60
2023-09-23T11:38:50.764Z,15.58
2023-09-23T11:39:53.632Z,15.58
2023-09-23T11:40:55.800Z,15.58
2023-09-23T11:41:59.408Z,15.59
2023-09-23T11:43:01.312Z,15.58
2023-09-23T11:44:04.140Z,15.59
2023-09-23T11:45:06.958Z,15.62
2023-09-23T11:46:09.975Z,15.62
2023-09-23T11:47:12.048Z,15.61
2023-09-23T11:48:14.983Z,15.62
2023-09-23T11:49:16.842Z,15.64
2023-09-23T11:50:21.133Z,15.63
2023-09-23T11:51:23.076Z,15.61
2023-09-23T11:52:26.465Z,15.62
2023-09-23T11:53:28.442Z,15.60
2023-09-23T11:54:31.381Z,15.59
2023-09-23T11:55:34.306Z,15.57
2023-09-23T11:56:40.071Z,15.57
2023-09-23T11:57:42.056Z,15.59
2023-09-23T11:58:54.643Z,15.62
2023-09-23T12:01:58.390Z,15.71
2023-09-23T12:03:00.444Z,15.73
2023-09-23T12:04:03.633Z,15.70
2023-09-23T12:05:07.646Z,15.69
2023-09-23T12:06:12.038Z,15.70
2023-09-23T12:07:15.353Z,15.69
2023-09-23T12:08:18.224Z,15.67
2023-09-23T12:09:20.108Z,15.69
2023-09-23T12:10:23.725Z,15.66
2023-09-23T12:11:25.597Z,15.67
2023-09-23T12:12:31.183Z,15.68
2023-09-23T12:13:33.165Z,15.73
2023-09-23T12:14:36.024Z,15.79
2023-09-23T12:15:37.921Z,15.80
2023-09-23T12:16:42.555Z,15.81
2023-09-23T12:17:45.219Z,15.78
2023-09-23T12:18:49.395Z,15.74
2023-09-23T12:19:51.626Z,15.71
2023-09-23T12:20:54.800Z,15.71
2023-09-23T12:21:58.025Z,15.72
2023-09-23T12:23:02.015Z,15.68
2023-09-23T12:24:04.947Z,15.68
2023-09-23T12:25:08.354Z,15.71
2023-09-23T12:26:11.015Z,15.73
2023-09-23T12:27:14.367Z,15.74
2023-09-23T12:28:16.257Z,15.65
2023-09-23T12:29:19.093Z,15.58
2023-09-23T12:30:20.967Z,15.50
2023-09-23T12:31:25.175Z,15.43
2023-09-23T12:32:27.067Z,15.37
2023-09-23T12:33:30.052Z,15.35
2023-09-23T12:34:51.470Z,15.34
2023-09-23T12:35:53.376Z,15.35
2023-09-23T12:36:56.170Z,15.34
2023-09-23T12:37:59.385Z,15.30
2023-09-23T12:39:02.291Z,15.25
2023-09-23T12:40:05.441Z,15.20
2023-09-23T12:41:08.247Z,15.12
2023-09-23T12:42:10.725Z,15.07
2023-09-23T12:43:13.533Z,15.03
2023-09-23T12:44:28.561Z,14.97
2023-09-23T12:45:31.647Z,14.93
2023-09-23T12:46:33.507Z,14.93
2023-09-23T12:48:41.470Z,14.97
2023-09-23T12:49:44.924Z,14.98
2023-09-23T12:50:46.865Z,15.00
2023-09-23T12:51:49.683Z,15.02
2023-09-23T12:52:51.829Z,15.04
2023-09-23T12:53:56.009Z,15.06
2023-09-23T12:54:57.832Z,15.06
2023-09-23T12:55:59.717Z,15.06
2023-09-23T12:57:02.499Z,15.07
2023-09-23T12:58:06.500Z,15.08
2023-09-23T12:59:09.327Z,15.08
2023-09-23T13:00:12.760Z,15.09
2023-09-23T13:01:15.761Z,15.10
2023-09-23T13:02:17.730Z,15.10
2023-09-23T13:03:20.682Z,15.14
2023-09-23T13:04:34.625Z,15.20
2023-09-23T13:05:37.598Z,15.20
2023-09-23T13:06:40.040Z,15.20
2023-09-23T13:07:42.830Z,15.19
2023-09-23T13:08:44.970Z,15.20
2023-09-23T13:09:49.741Z,15.20
2023-09-23T13:10:51.605Z,15.23
2023-09-23T13:11:54.662Z,15.22
2023-09-23T13:12:56.483Z,15.20
2023-09-23T13:13:59.319Z,15.19
2023-09-23T13:15:01.144Z,15.18
2023-09-23T13:16:04.198Z,15.21
2023-09-23T13:17:07.054Z,15.25
2023-09-23T13:18:17.521Z,15.28
2023-09-23T13:19:20.365Z,15.27
2023-09-23T13:20:22.250Z,15.30
2023-09-23T13:21:25.045Z,15.29
2023-09-23T13:22:27.248Z,15.28
2023-09-23T13:23:30.062Z,15.29
2023-09-23T13:24:34.143Z,15.29
2023-09-23T13:25:38.412Z,15.28
2023-09-23T13:26:40.364Z,15.26
2023-09-23T13:27:43.484Z,15.25
2023-09-23T13:28:45.587Z,15.23
2023-09-23T13:29:48.611Z,15.22
2023-09-23T13:30:50.496Z,15.22
2023-09-23T13:31:53.331Z,15.24
2023-09-23T13:33:09.826Z,15.26
2023-09-23T13:34:12.937Z,15.29
2023-09-23T13:35:14.958Z,15.34
2023-09-23T13:36:17.902Z,15.36
2023-09-23T13:37:19.814Z,15.36
2023-09-23T13:38:21.749Z,15.35
2023-09-23T13:39:24.604Z,15.36
2023-09-23T13:40:26.478Z,15.35
2023-09-23T13:41:32.152Z,15.37
2023-09-23T13:42:34.100Z,15.37
2023-09-23T13:43:42.994Z,15.40
2023-09-23T13:44:50.818Z,15.41
2023-09-23T13:45:53.611Z,15.45
2023-09-23T13:46:55.532Z,15.47
2023-09-23T13:47:58.499Z,15.48
2023-09-23T13:49:00.380Z,15.47
2023-09-23T13:50:03.599Z,15.42
2023-09-23T13:51:07.857Z,15.40
2023-09-23T13:52:11.354Z,15.39
2023-09-23T13:53:13.245Z,15.36
2023-09-23T13:54:16.098Z,15.35
2023-09-23T13:55:17.967Z,15.34
2023-09-23T13:56:20.904Z,15.33
2023-09-23T13:57:24.148Z,15.29
2023-09-23T13:58:26.933Z,15.23
2023-09-23T13:59:28.775Z,15.18
2023-09-23T14:00:32.765Z,15.14
2023-09-23T14:01:34.763Z,15.13
2023-09-23T14:02:41.247Z,15.13
2023-09-23T14:03:43.243Z,15.13
2023-09-23T14:04:46.122Z,15.17
2023-09-23T14:05:47.988Z,15.18
2023-09-23T14:06:50.841Z,15.19
2023-09-23T14:07:52.707Z,15.18
2023-09-23T14:08:55.528Z,15.17
2023-09-23T14:10:06.600Z,15.17
2023-09-23T14:11:18.155Z,15.11
2023-09-23T14:12:20.118Z,15.10
2023-09-23T14:13:24.310Z,15.10
2023-09-23T14:14:26.138Z,15.09
2023-09-23T14:15:28.974Z,15.10
2023-09-23T14:16:31.259Z,15.13
2023-09-23T14:17:34.184Z,15.14
2023-09-23T14:18:36.284Z,15.17
2023-09-23T14:19:39.313Z,15.18
2023-09-23T14:20:44.276Z,15.20
2023-09-23T14:21:47.134Z,15.22
2023-09-23T14:22:49.686Z,15.24
2023-09-23T14:23:52.819Z,15.25